Miltiadis Junior — D5FV2 — position and weather

sailwx.info

Track history (hours):
 
Tides and Currents Weather Stations Pressure Air Temp Water Temp Dewpoint Dewpoint Depression Visibility Wind Speed Wind Dir Waves Ship Positions

Miltiadis Junior

Last reported at 2017-Sep-12 05:54 UTC. Time now 2017-Sep-26 11:04 UTC.
Position N 14°32' W 061°42'.
Warning: this ship's position is 14 days out of date.

Length 333 m; draft 11.7 m.

Type: Tanker. MMSI: 636016370.

Date/timePositionNaut miles runAvg speedWind from/ knotsBaromVisibWave heightAir tempDewpointWater temp
2017-Sep-12 05:54N 14°32' W 061°42'5 9.2
2017-Sep-12 05:24N 14°36' W 061°39'9 8.9
2017-Sep-12 04:23N 14°43' W 061°33'4 9.4
2017-Sep-12 03:59N 14°46' W 061°30'45 9.7
2017-Sep-11 23:18N 15°19' W 060°58'3 9.3
2017-Sep-11 22:57N 15°21' W 060°56'10 8.9
2017-Sep-11 21:53N 15°28' W 060°49'4 8.7
2017-Sep-11 21:27N 15°31' W 060°46'4 9.0
2017-Sep-11 20:59N 15°34' W 060°43'  
Track history (hours):
 
Tides and Currents Weather Stations Pressure Air Temp Water Temp Dewpoint Dewpoint Depression Visibility Wind Speed Wind Dir Waves Ship Positions

Miltiadis Junior

Last reported at 2017-Sep-12 05:54 UTC. Time now 2017-Sep-26 11:04 UTC.
Position N 14°32' W 061°42'.
Warning: this ship's position is 14 days out of date.

Length 333 m; draft 11.7 m.

Type: Tanker. MMSI: 636016370.

Date/timePositionNaut miles runAvg speedWind from/ knotsBaromVisibWave heightAir tempDewpointWater temp
2017-Sep-12 05:54N 14°32' W 061°42'5 9.2
2017-Sep-12 05:24N 14°36' W 061°39'9 8.9
2017-Sep-12 04:23N 14°43' W 061°33'4 9.4
2017-Sep-12 03:59N 14°46' W 061°30'45 9.7
2017-Sep-11 23:18N 15°19' W 060°58'3 9.3
2017-Sep-11 22:57N 15°21' W 060°56'10 8.9
2017-Sep-11 21:53N 15°28' W 060°49'4 8.7
2017-Sep-11 21:27N 15°31' W 060°46'4 9.0
2017-Sep-11 20:59N 15°34' W 060°43'  

Dump ship's entire track history